Terminal Aerodrome Forecast
Issued by NWS

Home | Current Version | Previous Version | Text Only | Print | Product List | Glossary On
Versions: 1 2 3 4 5 6 7 8 9 10 11 12 13 14 15 16 17 18 19 20 21 22 23 24 25 26
000
FTPQ31 PGUM 030842 AAH
TAFTRO
TAF AMD

TAF AMD
PTYA 030842Z 0309/0406 25011G18KT P6SM VCSH FEW016 SCT040 BKN120
      TEMPO 0309/0313 5SM SHRA BKN014 OVC030=

USA.gov is the U.S. government's official web portal to all federal, state and local government web resources and services.